Time,TemperatureF,DewpointF,PressureIn,WindDirection,WindDirectionDegrees,WindSpeedMPH,WindSpeedGustMPH,Humidity,HourlyPrecipIn,Conditions,Clouds,dailyrainin,SoftwareType,DateUTC
2017-01-20 00:07:00,18.0,14.0,27.10,South,188,0.0,5.0,85,-99.99,,,-99.99,,2017-01-20 07:07:00,
2017-01-20 00:15:00,18.0,14.0,27.10,South,188,0.0,5.0,85,-99.99,,,-99.99,,2017-01-20 07:15:00,
2017-01-20 01:07:00,17.0,14.0,27.10,SSW,192,4.0,7.0,87,-99.99,,,-99.99,,2017-01-20 08:07:00,
2017-01-20 01:26:00,17.0,14.0,27.10,South,188,0.0,4.0,87,-99.99,,,-99.99,,2017-01-20 08:26:00,
2017-01-20 01:44:00,16.0,13.0,27.09,South,187,3.0,5.0,87,-99.99,,,-99.99,,2017-01-20 08:44:00,
2017-01-20 02:07:00,16.0,13.0,27.09,South,187,0.0,2.0,87,-99.99,,,-99.99,,2017-01-20 09:07:00,
2017-01-20 02:16:00,16.0,13.0,27.09,South,187,0.0,2.0,87,-99.99,,,-99.99,,2017-01-20 09:16:00,
2017-01-20 02:44:00,15.0,12.0,27.10,South,186,6.0,7.0,88,-99.99,,,-99.99,,2017-01-20 09:44:00,
2017-01-20 03:06:00,16.0,13.0,27.09,South,175,6.0,8.0,89,-99.99,,,-99.99,,2017-01-20 10:06:00,
2017-01-20 03:17:00,16.0,13.0,27.09,South,175,6.0,-999.0,89,-99.99,,,-99.99,,2017-01-20 10:17:00,
2017-01-20 05:06:00,17.0,14.0,27.08,South,190,6.0,8.0,89,-99.99,,,-99.99,,2017-01-20 12:06:00,
2017-01-20 05:16:00,17.0,14.0,27.08,South,190,6.0,8.0,89,-99.99,,,-99.99,,2017-01-20 12:16:00,
2017-01-20 06:07:00,16.0,13.0,27.08,South,185,4.0,7.0,89,-99.99,,,-99.99,,2017-01-20 13:07:00,
2017-01-20 06:15:00,16.0,13.0,27.08,South,190,5.0,8.0,88,-99.99,,,-99.99,,2017-01-20 13:15:00,
2017-01-20 06:57:00,15.0,12.0,27.08,South,185,4.0,6.0,88,-99.99,,,-99.99,,2017-01-20 13:57:00,
2017-01-20 07:07:00,15.0,12.0,27.08,South,182,4.0,7.0,89,-99.99,,,-99.99,,2017-01-20 14:07:00,
2017-01-20 07:19:00,15.0,12.0,27.08,South,182,4.0,7.0,89,-99.99,,,-99.99,,2017-01-20 14:19:00,
2017-01-20 07:27:00,15.0,12.0,27.08,South,181,3.0,6.0,89,-99.99,,,-99.99,,2017-01-20 14:27:00,
2017-01-20 08:06:00,15.0,13.0,27.08,South,185,1.0,5.0,90,-99.99,,,-99.99,,2017-01-20 15:06:00,
2017-01-20 10:08:00,21.0,19.0,27.07,South,184,0.0,1.0,91,-99.99,,,-99.99,,2017-01-20 17:08:00,
2017-01-20 11:08:00,24.0,20.0,27.06,South,186,0.0,4.0,86,-99.99,,,-99.99,,2017-01-20 18:08:00,
2017-01-20 11:15:00,24.0,20.0,27.06,South,186,0.0,4.0,86,-99.99,,,-99.99,,2017-01-20 18:15:00,
2017-01-20 12:07:00,32.0,29.0,27.03,SSW,200,10.0,13.0,88,-99.99,,,-99.99,,2017-01-20 19:07:00,
2017-01-20 12:56:00,35.0,31.0,27.03,South,186,8.0,10.0,86,-99.99,,,-99.99,,2017-01-20 19:56:00,
2017-01-20 13:08:00,35.0,31.0,27.02,South,185,7.0,11.0,86,-99.99,,,-99.99,,2017-01-20 20:08:00,
2017-01-20 13:17:00,35.0,31.0,27.02,South,185,7.0,11.0,86,-99.99,,,-99.99,,2017-01-20 20:17:00,
2017-01-20 14:14:00,35.0,32.0,27.02,South,172,6.0,9.0,87,-99.99,,,-99.99,,2017-01-20 21:14:00,
2017-01-20 15:07:00,35.0,32.0,27.01,South,172,8.0,10.0,88,-99.99,,,-99.99,,2017-01-20 22:07:00,
2017-01-20 16:13:00,35.0,32.0,27.02,South,175,6.0,10.0,89,-99.99,,,-99.99,,2017-01-20 23:13:00,
2017-01-20 16:36:00,35.0,32.0,27.02,South,175,7.0,10.0,89,-99.99,,,-99.99,,2017-01-20 23:36:00,
2017-01-20 16:47:00,35.0,32.0,27.02,South,177,5.0,9.0,89,-99.99,,,-99.99,,2017-01-20 23:47:00,